Time;durP1;ratioP1;P1;durP2;ratioP2;P2;SDS_P1;SDS_P2;PMS_P1;PMS_P2;Temp;Humidity;BMP_temperature;BMP_pressure;BME280_temperature;BME280_humidity;BME280_pressure;Samples;Min_cycle;Max_cycle;Signal;HPM_P1;HPM_P2
2023/07/16 00:01:14;;;;;;;2.13;0.80;;;;;;;20.44;89.93;100204.91;5035097;28;20041;-81
2023/07/16 00:03:40;;;;;;;1.33;0.80;;;;;;;20.38;89.90;100198.13;5034538;28;20065;-84
2023/07/16 00:06:06;;;;;;;1.15;0.80;;;;;;;20.36;90.09;100208.00;5043232;28;20072;-82
2023/07/16 00:08:33;;;;;;;1.08;1.00;;;;;;;20.32;90.53;100217.97;5038542;28;20035;-82
2023/07/16 00:10:59;;;;;;;1.38;1.10;;;;;;;20.26;90.19;100207.66;5034936;28;20041;-81
2023/07/16 00:13:26;;;;;;;1.55;1.13;;;;;;;20.22;90.32;100211.44;5034366;28;20060;-82
2023/07/16 00:15:53;;;;;;;3.47;0.90;;;;;;;20.19;90.22;100211.59;5033957;28;20610;-83
2023/07/16 00:18:19;;;;;;;0.98;0.68;;;;;;;20.14;90.61;100197.72;5035224;28;20037;-81
2023/07/16 00:20:46;;;;;;;3.03;0.85;;;;;;;20.07;90.77;100173.28;5008400;28;20069;-82
2023/07/16 00:23:12;;;;;;;1.77;1.10;;;;;;;20.06;90.66;100163.59;5027843;28;20789;-83
2023/07/16 00:25:39;;;;;;;1.65;1.00;;;;;;;20.04;90.36;100156.66;5022335;28;20037;-82
2023/07/16 00:28:05;;;;;;;1.55;0.95;;;;;;;20.04;90.70;100161.97;5053835;28;20044;-84
2023/07/16 00:30:32;;;;;;;0.90;0.70;;;;;;;20.03;90.37;100171.75;5033335;28;20040;-82
2023/07/16 00:32:58;;;;;;;1.05;0.80;;;;;;;20.03;90.53;100171.75;5032716;28;20490;-81
2023/07/16 00:35:25;;;;;;;0.90;0.68;;;;;;;20.02;90.24;100143.47;5034239;28;20029;-81
2023/07/16 00:37:51;;;;;;;2.88;1.20;;;;;;;20.03;90.45;100142.53;5033131;28;20041;-84
2023/07/16 00:40:18;;;;;;;2.25;1.20;;;;;;;19.97;90.62;100117.19;5024381;28;20433;-81
2023/07/16 00:42:44;;;;;;;0.93;0.77;;;;;;;19.96;90.63;100138.53;5028312;28;20037;-80
2023/07/16 00:45:14;;;;;;;3.95;1.70;;;;;;;19.94;90.78;100190.88;5033924;28;20632;-83
2023/07/16 00:47:43;;;;;;;2.25;1.25;;;;;;;19.96;90.78;100208.44;5032522;28;20034;-81
2023/07/16 00:50:12;;;;;;;1.75;1.23;;;;;;;19.95;90.84;100211.19;5042431;28;20428;-80
2023/07/16 00:52:39;;;;;;;3.15;1.17;;;;;;;19.92;91.08;100203.38;5029775;28;20042;-82
2023/07/16 00:55:08;;;;;;;2.40;0.95;;;;;;;19.88;91.15;100191.22;5024677;28;20045;-81
2023/07/16 00:57:34;;;;;;;2.05;1.00;;;;;;;19.86;91.21;100190.44;5009815;28;20072;-82
2023/07/16 01:00:01;;;;;;;1.08;0.98;;;;;;;19.86;91.28;100196.59;5029749;28;20050;-82
2023/07/16 01:02:27;;;;;;;2.35;1.08;;;;;;;19.87;91.48;100208.94;5028915;28;20114;-81
2023/07/16 01:04:54;;;;;;;1.50;1.38;;;;;;;19.86;91.55;100233.78;5030472;28;20049;-81
2023/07/16 01:07:25;;;;;;;0.88;0.88;;;;;;;19.89;91.21;100243.41;5031922;28;20580;-80
2023/07/16 01:09:52;;;;;;;2.55;1.75;;;;;;;19.85;91.56;100242.69;5012815;28;20049;-81
2023/07/16 01:12:23;;;;;;;3.38;0.90;;;;;;;19.83;91.71;100226.00;5032268;28;20515;-81
2023/07/16 01:14:52;;;;;;;1.52;1.10;;;;;;;19.80;91.77;100213.72;5034438;28;20041;-81
2023/07/16 01:17:19;;;;;;;1.35;1.02;;;;;;;19.78;91.99;100220.91;5035384;28;20052;-83
2023/07/16 01:19:45;;;;;;;1.75;1.17;;;;;;;19.78;92.08;100215.59;5032106;28;20044;-81
2023/07/16 01:23:07;;;;;;;0.90;0.90;;;;;;;19.78;92.33;100215.59;5033873;28;20109;-81
2023/07/16 01:26:09;;;;;;;2.45;1.10;;;;;;;19.82;91.90;100221.63;5024309;28;20029;-81
2023/07/16 01:29:29;;;;;;;1.17;1.00;;;;;;;19.86;91.97;100243.56;5032279;28;20038;-83
2023/07/16 01:31:57;;;;;;;1.08;0.65;;;;;;;19.87;91.48;100251.47;5031949;28;20478;-84
2023/07/16 01:34:26;;;;;;;2.40;1.13;;;;;;;19.83;91.79;100245.44;5032874;28;20049;-82
2023/07/16 01:36:52;;;;;;;3.00;1.40;;;;;;;19.81;92.10;100251.75;5033185;28;20476;-84
2023/07/16 01:39:20;;;;;;;2.35;1.10;;;;;;;19.79;92.10;100250.97;5027562;28;20044;-84
2023/07/16 01:41:46;;;;;;;1.95;1.10;;;;;;;19.76;92.57;100244.00;5023166;28;20037;-83
2023/07/16 01:44:13;;;;;;;1.88;0.85;;;;;;;19.72;92.91;100236.31;5027891;28;20029;-83
2023/07/16 01:46:39;;;;;;;1.80;1.00;;;;;;;19.73;92.67;100240.69;5028278;28;20045;-83
2023/07/16 01:49:06;;;;;;;1.55;0.85;;;;;;;19.71;92.57;100232.81;5029220;28;20484;-84
2023/07/16 01:51:32;;;;;;;1.42;1.00;;;;;;;19.72;92.64;100215.91;5024821;28;20034;-83
2023/07/16 01:53:59;;;;;;;2.28;1.42;;;;;;;19.71;92.32;100216.88;5029471;28;20041;-81
2023/07/16 01:56:25;;;;;;;2.42;1.50;;;;;;;19.66;92.40;100216.28;5029038;28;20041;-81
2023/07/16 01:58:52;;;;;;;1.42;1.25;;;;;;;19.66;92.17;100224.22;5029675;28;20042;-81
2023/07/16 02:01:18;;;;;;;0.90;0.90;;;;;;;19.63;92.00;100222.59;5032474;28;20041;-81
2023/07/16 02:03:45;;;;;;;2.03;0.80;;;;;;;19.62;92.01;100217.34;5032223;28;20026;-81
2023/07/16 02:06:13;;;;;;;3.05;0.95;;;;;;;19.59;92.25;100210.41;5036760;28;20072;-81
2023/07/16 02:08:39;;;;;;;2.05;0.98;;;;;;;19.58;92.12;100208.72;5033259;28;20041;-81
2023/07/16 02:11:06;;;;;;;2.53;0.90;;;;;;;19.54;92.24;100206.28;5032611;28;20045;-82
2023/07/16 02:13:32;;;;;;;1.80;1.23;;;;;;;19.54;92.62;100214.25;5007763;28;20691;-82
2023/07/16 02:15:59;;;;;;;1.25;1.00;;;;;;;19.56;92.57;100204.44;5028598;28;20389;-81
2023/07/16 02:18:25;;;;;;;3.15;0.90;;;;;;;19.54;92.67;100220.41;5022068;28;20045;-81
2023/07/16 02:20:52;;;;;;;2.00;1.05;;;;;;;19.51;92.48;100232.06;5033405;28;20037;-83
2023/07/16 02:23:18;;;;;;;1.35;1.05;;;;;;;19.46;93.13;100223.50;5027366;28;20040;-81
2023/07/16 02:25:45;;;;;;;1.48;1.38;;;;;;;19.36;93.78;100222.28;5030894;28;20038;-83
2023/07/16 02:28:11;;;;;;;2.22;1.00;;;;;;;19.29;94.11;100232.31;5013312;28;20053;-81
2023/07/16 02:30:38;;;;;;;2.42;0.88;;;;;;;19.22;95.00;100236.25;5030876;28;20061;-81
2023/07/16 02:33:05;;;;;;;2.25;0.68;;;;;;;19.21;95.05;100242.47;5008675;28;20455;-81
2023/07/16 02:35:31;;;;;;;1.63;1.17;;;;;;;19.21;95.56;100231.03;5025944;28;20045;-81
2023/07/16 02:37:57;;;;;;;1.70;1.40;;;;;;;19.20;95.36;100237.25;5010225;28;20414;-81
2023/07/16 02:40:24;;;;;;;1.20;1.10;;;;;;;19.20;95.36;100243.41;5019530;28;20049;-81
2023/07/16 02:42:50;;;;;;;0.93;0.90;;;;;;;19.20;95.61;100240.75;5027818;28;20045;-82
2023/07/16 02:45:17;;;;;;;2.20;1.08;;;;;;;19.20;95.38;100239.91;5029818;28;20065;-81
2023/07/16 02:47:44;;;;;;;1.90;0.98;;;;;;;19.17;95.21;100230.31;5014559;28;20041;-80
2023/07/16 02:50:11;;;;;;;2.08;0.90;;;;;;;19.15;95.31;100234.84;5026427;28;20034;-81
2023/07/16 02:52:37;;;;;;;3.67;1.00;;;;;;;19.10;95.53;100232.44;5031692;28;20048;-81
2023/07/16 02:55:04;;;;;;;3.13;1.70;;;;;;;19.08;96.05;100244.06;5033666;28;20065;-81
2023/07/16 02:57:31;;;;;;;2.13;1.13;;;;;;;19.06;96.32;100256.53;5029603;28;20060;-81
2023/07/16 02:59:57;;;;;;;1.38;1.38;;;;;;;19.01;96.37;100257.63;5016731;28;20049;-84
2023/07/16 03:02:24;;;;;;;1.00;1.00;;;;;;;18.96;96.68;100256.16;5019822;28;20052;-81
2023/07/16 03:04:50;;;;;;;2.35;1.13;;;;;;;18.92;96.82;100260.75;5029592;28;20698;-81
2023/07/16 03:07:17;;;;;;;1.02;0.80;;;;;;;18.82;97.23;100264.75;5028636;28;20041;-81
2023/07/16 03:09:43;;;;;;;1.08;0.98;;;;;;;18.71;98.06;100272.38;5011989;28;20037;-81
2023/07/16 03:12:10;;;;;;;2.33;1.65;;;;;;;18.67;98.46;100271.69;5015328;28;20034;-84
2023/07/16 03:14:36;;;;;;;1.67;0.95;;;;;;;18.70;97.96;100273.34;5020342;28;20132;-84
2023/07/16 03:17:03;;;;;;;2.50;1.77;;;;;;;18.71;97.12;100264.41;5026771;28;20034;-81
2023/07/16 03:19:29;;;;;;;0.90;0.90;;;;;;;18.70;96.80;100270.69;5029914;28;20045;-80
2023/07/16 03:21:56;;;;;;;3.30;1.45;;;;;;;18.69;96.32;100267.16;5040872;28;21047;-81
2023/07/16 03:24:22;;;;;;;1.50;1.02;;;;;;;18.60;96.79;100272.91;5040689;28;20049;-81
2023/07/16 03:26:49;;;;;;;1.92;1.58;;;;;;;18.53;97.00;100267.06;5032784;28;20041;-80
2023/07/16 03:29:15;;;;;;;1.65;1.15;;;;;;;18.44;97.09;100265.69;5031764;28;20046;-80
2023/07/16 03:31:42;;;;;;;3.08;1.20;;;;;;;18.42;97.32;100278.19;5037899;28;20118;-83
2023/07/16 03:34:08;;;;;;;2.00;1.15;;;;;;;18.44;96.89;100286.91;5015395;28;20037;-81
2023/07/16 03:36:34;;;;;;;2.08;1.20;;;;;;;18.48;96.88;100284.97;5030968;28;20033;-82
2023/07/16 03:39:02;;;;;;;2.28;1.23;;;;;;;18.49;96.78;100292.84;5030138;28;20033;-81
2023/07/16 03:41:29;;;;;;;1.77;1.27;;;;;;;18.57;96.10;100297.78;5030330;28;20045;-84
2023/07/16 03:43:55;;;;;;;3.05;1.20;;;;;;;18.56;95.85;100293.41;5022847;28;20038;-82
2023/07/16 03:46:22;;;;;;;1.35;1.23;;;;;;;18.58;95.95;100306.59;5029915;28;20045;-81
2023/07/16 03:48:49;;;;;;;2.22;1.77;;;;;;;18.55;95.69;100297.00;5035242;28;20132;-81
2023/07/16 03:51:17;;;;;;;1.20;1.20;;;;;;;18.46;96.07;100302.72;5038880;28;20120;-81
2023/07/16 03:53:43;;;;;;;1.65;1.52;;;;;;;18.40;96.62;100295.94;5014374;28;20037;-81
2023/07/16 03:56:10;;;;;;;1.48;1.38;;;;;;;18.44;96.41;100310.75;5032055;28;20104;-81
2023/07/16 03:58:36;;;;;;;4.82;2.13;;;;;;;18.51;96.18;100322.78;5014634;28;20041;-81
2023/07/16 04:01:03;;;;;;;1.38;1.10;;;;;;;18.51;95.88;100320.13;5035798;28;20053;-80
2023/07/16 04:03:29;;;;;;;2.60;1.80;;;;;;;18.45;96.34;100323.06;5038825;28;20038;-82
2023/07/16 04:06:10;;;;;;;3.17;1.85;;;;;;;18.40;96.42;100334.84;5035501;28;20523;-81
2023/07/16 04:08:37;;;;;;;5.88;1.98;;;;;;;18.39;96.71;100331.31;5031730;28;20034;-84
2023/07/16 04:11:07;;;;;;;2.85;1.33;;;;;;;18.37;96.79;100333.19;5030456;28;20038;-83
2023/07/16 04:13:34;;;;;;;2.90;1.48;;;;;;;18.31;96.71;100334.31;5030167;28;20117;-81
2023/07/16 04:16:00;;;;;;;1.55;1.30;;;;;;;18.34;97.04;100342.13;5037068;28;20044;-81
2023/07/16 04:18:27;;;;;;;5.32;1.17;;;;;;;18.34;96.94;100336.84;5034187;28;20042;-81
2023/07/16 04:20:54;;;;;;;2.50;1.60;;;;;;;18.36;96.95;100342.06;5024122;28;20392;-81
2023/07/16 04:23:21;;;;;;;2.80;1.45;;;;;;;18.42;96.90;100347.09;5034509;28;20037;-81
2023/07/16 04:25:48;;;;;;;4.20;1.70;;;;;;;18.52;96.38;100348.38;5032350;28;20042;-81
2023/07/16 04:28:14;;;;;;;1.70;1.40;;;;;;;18.67;95.78;100359.19;5023006;28;20121;-81
2023/07/16 04:30:41;;;;;;;1.35;1.25;;;;;;;18.81;94.75;100377.06;5026677;28;20061;-81
2023/07/16 04:33:07;;;;;;;2.15;1.33;;;;;;;18.85;94.67;100373.31;5018571;28;20050;-81
2023/07/16 04:35:34;;;;;;;4.78;1.92;;;;;;;18.89;94.16;100376.69;5041345;28;20108;-81
2023/07/16 04:38:00;;;;;;;2.35;1.50;;;;;;;18.83;94.62;100372.56;5033378;28;20037;-81
2023/07/16 04:40:29;;;;;;;3.35;1.20;;;;;;;18.75;94.87;100374.72;5025787;28;20045;-81
2023/07/16 04:42:56;;;;;;;2.42;1.40;;;;;;;18.63;95.19;100376.13;5028300;28;20048;-81
2023/07/16 04:45:22;;;;;;;2.67;1.60;;;;;;;18.57;95.89;100389.69;5034296;28;20042;-81
2023/07/16 04:47:49;;;;;;;3.28;1.80;;;;;;;18.53;95.93;100394.28;5040487;28;20037;-80
2023/07/16 04:50:16;;;;;;;1.63;1.52;;;;;;;18.52;96.02;100398.72;5036360;28;20075;-81
2023/07/16 04:52:42;;;;;;;3.78;1.75;;;;;;;18.56;95.97;100403.88;5029756;28;20048;-81
2023/07/16 04:55:09;;;;;;;4.88;1.45;;;;;;;18.63;95.77;100405.31;5031531;28;20476;-81
2023/07/16 04:57:36;;;;;;;2.80;1.70;;;;;;;18.64;95.58;100405.25;5033906;28;20045;-81
2023/07/16 05:00:02;;;;;;;1.63;1.48;;;;;;;18.70;95.57;100408.56;5031644;28;20051;-81
2023/07/16 05:02:29;;;;;;;2.38;1.42;;;;;;;18.72;95.72;100415.50;5040070;28;20040;-81
2023/07/16 05:04:56;;;;;;;2.47;1.63;;;;;;;18.73;95.54;100411.91;5027399;28;20129;-81
2023/07/16 05:07:22;;;;;;;8.25;2.13;;;;;;;18.80;95.16;100416.00;5022470;28;20060;-82
2023/07/16 05:09:48;;;;;;;3.17;1.08;;;;;;;18.83;94.78;100407.88;5031619;28;20044;-80
2023/07/16 05:12:18;;;;;;;3.83;1.58;;;;;;;18.90;94.24;100407.63;5031233;28;20041;-81
2023/07/16 05:14:48;;;;;;;3.13;1.55;;;;;;;18.94;93.94;100406.53;5032314;28;20037;-83
2023/07/16 05:17:20;;;;;;;3.15;1.92;;;;;;;18.94;94.23;100415.38;5022662;28;20052;-81
2023/07/16 05:19:47;;;;;;;2.80;1.13;;;;;;;19.02;93.50;100422.97;5031248;28;20029;-80
2023/07/16 05:22:13;;;;;;;3.38;1.33;;;;;;;19.02;93.21;100415.03;5031822;28;20049;-81
2023/07/16 05:24:40;;;;;;;1.95;1.15;;;;;;;19.06;92.69;100421.00;5017173;28;20040;-83
2023/07/16 05:27:06;;;;;;;2.15;1.40;;;;;;;19.06;92.75;100423.66;5019079;28;20038;-83
2023/07/16 05:29:33;;;;;;;2.10;1.40;;;;;;;19.08;92.32;100417.34;5017929;28;20072;-81
2023/07/16 05:31:59;;;;;;;3.60;1.77;;;;;;;19.11;92.18;100426.97;5026100;28;20042;-82
2023/07/16 05:34:26;;;;;;;2.85;0.93;;;;;;;19.15;91.80;100431.16;5021371;28;20061;-82
2023/07/16 05:36:55;;;;;;;2.42;1.20;;;;;;;19.13;91.12;100433.06;5004813;28;20178;-82
2023/07/16 05:39:23;;;;;;;4.30;1.50;;;;;;;19.10;91.16;100442.03;5024260;28;20045;-82
2023/07/16 05:41:49;;;;;;;4.35;1.10;;;;;;;19.15;90.30;100440.00;5012028;28;20741;-82
2023/07/16 05:44:16;;;;;;;1.58;1.00;;;;;;;19.21;89.66;100443.31;5032729;28;20103;-82
2023/07/16 05:46:42;;;;;;;1.92;1.13;;;;;;;19.28;87.74;100432.31;5022071;28;20136;-80
2023/07/16 05:49:09;;;;;;;4.13;1.30;;;;;;;19.32;87.42;100436.53;5047437;28;20037;-80
2023/07/16 05:51:35;;;;;;;1.80;1.27;;;;;;;19.36;86.79;100445.22;5035636;28;20036;-80
2023/07/16 05:54:02;;;;;;;1.20;0.80;;;;;;;19.36;86.86;100447.88;5029012;28;20507;-82
2023/07/16 05:56:28;;;;;;;2.03;0.98;;;;;;;19.39;86.97;100437.09;5028405;28;20108;-80
2023/07/16 05:58:56;;;;;;;1.42;1.10;;;;;;;19.37;87.09;100448.72;5028365;28;20041;-84
2023/07/16 06:01:22;;;;;;;3.33;1.38;;;;;;;19.39;87.25;100450.38;5033504;28;20044;-80
2023/07/16 06:03:49;;;;;;;3.55;1.40;;;;;;;19.43;86.68;100438.66;5039402;28;20039;-80
2023/07/16 06:06:19;;;;;;;4.68;1.58;;;;;;;19.47;86.35;100442.88;5025442;28;20048;-82
2023/07/16 06:08:51;;;;;;;1.15;0.75;;;;;;;19.53;85.98;100443.50;5030002;28;20227;-80
2023/07/16 06:11:18;;;;;;;4.32;1.55;;;;;;;19.59;84.87;100453.81;5033646;28;20045;-80
2023/07/16 06:13:44;;;;;;;3.17;1.30;;;;;;;19.65;84.51;100437.59;5031453;28;20044;-80
2023/07/16 06:16:10;;;;;;;1.85;1.02;;;;;;;19.66;83.96;100441.97;5033253;28;20760;-80
2023/07/16 06:18:37;;;;;;;4.80;1.83;;;;;;;19.69;83.41;100454.25;5031553;28;20041;-80
2023/07/16 06:21:03;;;;;;;4.65;1.38;;;;;;;19.73;82.87;100455.81;5033372;28;20033;-80
2023/07/16 06:23:30;;;;;;;2.15;1.65;;;;;;;19.85;81.65;100459.66;5026362;28;20380;-80
2023/07/16 06:25:57;;;;;;;2.92;1.70;;;;;;;19.97;81.21;100465.22;5014489;28;20476;-82
2023/07/16 06:28:24;;;;;;;2.35;1.08;;;;;;;20.12;79.60;100460.88;5031248;28;20669;-79
2023/07/16 06:30:52;;;;;;;4.70;1.42;;;;;;;20.32;78.31;100459.84;5026244;28;20064;-80
2023/07/16 06:33:19;;;;;;;4.68;1.35;;;;;;;20.44;77.70;100471.63;5031067;28;20100;-80
2023/07/16 06:35:47;;;;;;;1.63;1.50;;;;;;;20.41;77.18;100470.94;5047869;28;20041;-82
2023/07/16 06:38:15;;;;;;;2.72;1.92;;;;;;;20.29;77.09;100465.31;5024126;28;20045;-83
2023/07/16 06:40:52;;;;;;;2.97;1.50;;;;;;;20.18;77.28;100451.75;5023660;28;20045;-81
2023/07/16 06:43:19;;;;;;;4.20;1.27;;;;;;;20.15;76.72;100439.50;5028082;28;20041;-80
2023/07/16 06:45:45;;;;;;;4.03;1.38;;;;;;;20.17;77.15;100472.13;5040485;28;20052;-81
2023/07/16 06:48:12;;;;;;;1.60;1.20;;;;;;;20.24;76.53;100475.34;5033142;28;20048;-80
2023/07/16 06:50:38;;;;;;;3.17;1.23;;;;;;;20.36;76.21;100480.94;5035597;28;20029;-80
2023/07/16 06:53:05;;;;;;;2.78;1.67;;;;;;;20.55;75.30;100487.00;5032277;28;20038;-80
2023/07/16 06:55:31;;;;;;;2.40;1.55;;;;;;;20.80;73.63;100491.88;5031039;28;20034;-80
2023/07/16 06:57:58;;;;;;;3.90;1.63;;;;;;;21.05;72.52;100473.72;5026753;28;20407;-80
2023/07/16 07:00:24;;;;;;;2.42;1.45;;;;;;;20.99;70.87;100481.09;5030547;28;20103;-81
2023/07/16 07:02:51;;;;;;;2.03;1.38;;;;;;;21.00;70.74;100487.28;5007088;28;21035;-83
2023/07/16 07:05:17;;;;;;;2.97;2.10;;;;;;;20.92;71.94;100494.81;5016551;28;20045;-83
2023/07/16 07:07:44;;;;;;;2.53;1.60;;;;;;;21.01;70.51;100491.66;5017412;28;20045;-81
2023/07/16 07:10:14;;;;;;;2.10;1.67;;;;;;;21.13;69.84;100503.41;5028112;28;20040;-80
2023/07/16 07:12:41;;;;;;;1.73;1.20;;;;;;;21.15;69.91;100501.53;5030935;28;20033;-80
2023/07/16 07:15:09;;;;;;;4.72;1.35;;;;;;;21.15;69.79;100498.88;5015383;28;20120;-82
2023/07/16 07:17:36;;;;;;;3.88;1.40;;;;;;;21.08;67.29;100506.34;5026822;28;20049;-79
2023/07/16 07:20:03;;;;;;;4.13;1.63;;;;;;;21.07;67.11;100504.63;5038937;28;20037;-80
2023/07/16 07:22:30;;;;;;;4.50;1.70;;;;;;;20.86;63.65;100521.75;5017220;28;20045;-80
2023/07/16 07:24:56;;;;;;;4.43;1.92;;;;;;;20.87;62.27;100512.84;5018850;28;20042;-80
2023/07/16 07:27:23;;;;;;;3.67;1.67;;;;;;;21.14;61.95;100505.16;5031029;28;20053;-80
2023/07/16 07:29:51;;;;;;;2.85;1.70;;;;;;;21.64;58.63;100495.25;5031928;28;20045;-80
2023/07/16 07:32:21;;;;;;;4.20;1.67;;;;;;;21.85;55.66;100502.94;5048731;28;20043;-80
2023/07/16 07:34:48;;;;;;;1.40;1.30;;;;;;;22.36;53.58;100499.94;5026256;28;20044;-80
2023/07/16 07:37:14;;;;;;;2.45;1.67;;;;;;;22.73;52.87;100492.34;5030431;28;20045;-80
2023/07/16 07:39:41;;;;;;;5.40;2.08;;;;;;;23.04;51.07;100498.44;5025345;28;20044;-80
2023/07/16 07:42:09;;;;;;;2.25;1.63;;;;;;;23.33;49.61;100509.06;5030432;28;20491;-79
2023/07/16 07:44:35;;;;;;;6.28;2.67;;;;;;;23.34;48.08;100494.78;5038835;28;20042;-80
2023/07/16 07:47:02;;;;;;;4.07;2.22;;;;;;;23.46;47.26;100505.47;5028863;28;20159;-81
2023/07/16 07:49:28;;;;;;;7.00;1.60;;;;;;;23.44;47.02;100495.84;5029981;28;20112;-80
2023/07/16 07:51:55;;;;;;;3.65;1.83;;;;;;;23.27;45.53;100489.81;5038868;28;20037;-80
2023/07/16 07:54:21;;;;;;;1.63;1.40;;;;;;;23.15;45.92;100509.28;5039463;28;20079;-82
2023/07/16 07:56:48;;;;;;;4.07;1.90;;;;;;;23.37;45.57;100511.44;5034115;28;20480;-81
2023/07/16 07:59:14;;;;;;;6.75;2.22;;;;;;;23.44;43.54;100525.25;5033534;28;20392;-80
2023/07/16 08:01:41;;;;;;;4.50;1.90;;;;;;;23.52;43.33;100512.25;5039244;28;20780;-81
2023/07/16 08:04:07;;;;;;;3.70;1.83;;;;;;;23.83;42.21;100509.34;5016286;28;20042;-81
2023/07/16 08:06:34;;;;;;;5.25;2.17;;;;;;;23.90;42.73;100534.75;5030362;28;20045;-81
2023/07/16 08:09:00;;;;;;;5.93;2.40;;;;;;;24.50;41.35;100533.34;5031200;28;20463;-80
2023/07/16 08:11:27;;;;;;;4.05;2.08;;;;;;;24.73;41.20;100538.91;5015435;28;20045;-80
2023/07/16 08:13:53;;;;;;;2.40;1.63;;;;;;;24.70;40.00;100517.75;5039696;28;20037;-83
2023/07/16 08:16:19;;;;;;;3.20;1.80;;;;;;;24.74;40.28;100546.88;5034480;28;20044;-81
2023/07/16 08:18:46;;;;;;;5.57;1.90;;;;;;;24.98;39.32;100547.88;5026250;28;20037;-82
2023/07/16 08:21:19;;;;;;;3.03;1.83;;;;;;;25.41;38.86;100542.16;5019877;28;20040;-82
2023/07/16 08:23:47;;;;;;;5.90;2.45;;;;;;;25.55;38.14;100549.16;5024378;28;20049;-81
2023/07/16 08:26:14;;;;;;;4.43;1.80;;;;;;;25.85;38.05;100553.22;5017550;28;20041;-83
2023/07/16 08:28:40;;;;;;;3.90;2.30;;;;;;;26.03;37.90;100559.00;5037583;28;20060;-83
2023/07/16 08:31:07;;;;;;;4.22;2.20;;;;;;;26.13;37.42;100569.94;5045046;28;20037;-81
2023/07/16 08:33:33;;;;;;;5.80;2.60;;;;;;;25.96;36.88;100565.81;5016621;28;20056;-85
2023/07/16 08:36:00;;;;;;;5.95;2.08;;;;;;;25.51;38.08;100555.72;5026080;28;20033;-80
2023/07/16 08:38:26;;;;;;;2.65;1.88;;;;;;;25.76;38.06;100569.03;5030787;28;20053;-79
2023/07/16 08:40:53;;;;;;;3.63;2.67;;;;;;;26.46;36.71;100557.59;5032573;28;20041;-79
2023/07/16 08:43:21;;;;;;;3.45;1.80;;;;;;;26.41;36.21;100563.31;5039482;28;20074;-79
2023/07/16 08:45:49;;;;;;;3.17;1.88;;;;;;;25.95;36.43;100574.84;5031641;28;20073;-79
2023/07/16 08:48:18;;;;;;;3.63;2.33;;;;;;;25.56;37.49;100566.97;5031215;28;20033;-80
2023/07/16 08:50:48;;;;;;;4.22;1.90;;;;;;;24.50;38.43;100565.44;5030113;28;20065;-79
2023/07/16 08:53:17;;;;;;;5.50;1.77;;;;;;;23.79;39.26;100563.03;5027055;28;20049;-77
2023/07/16 08:55:45;;;;;;;2.08;1.45;;;;;;;23.55;39.98;100561.97;5026951;28;20041;-79
2023/07/16 08:58:16;;;;;;;3.15;1.95;;;;;;;23.67;39.96;100574.50;5032486;28;20029;-80
2023/07/16 09:00:45;;;;;;;2.15;1.42;;;;;;;23.46;40.60;100571.41;5038111;28;20041;-82
2023/07/16 09:03:16;;;;;;;3.33;1.77;;;;;;;23.30;40.71;100568.88;5027157;28;20042;-83
2023/07/16 09:05:44;;;;;;;3.78;1.88;;;;;;;23.41;40.55;100565.50;5024410;28;20033;-83
2023/07/16 09:08:11;;;;;;;2.38;1.42;;;;;;;24.71;38.51;100562.28;4997111;28;20049;-84
2023/07/16 09:10:38;;;;;;;3.67;1.92;;;;;;;25.91;36.34;100558.13;4998481;28;20096;-83
2023/07/16 09:13:04;;;;;;;2.47;1.52;;;;;;;26.21;36.00;100556.81;5019166;28;20053;-83
2023/07/16 09:15:31;;;;;;;2.70;2.10;;;;;;;26.42;35.74;100556.97;5021803;28;20037;-83
2023/07/16 09:17:57;;;;;;;4.38;1.52;;;;;;;26.39;35.94;100563.44;5020656;28;20045;-81
2023/07/16 09:20:24;;;;;;;2.88;1.83;;;;;;;26.76;35.39;100558.88;5018860;28;20366;-83
2023/07/16 09:22:50;;;;;;;8.38;1.92;;;;;;;27.12;35.20;100567.66;5019158;28;20416;-85
2023/07/16 09:25:17;;;;;;;6.32;1.85;;;;;;;28.14;33.11;100562.06;5026914;28;20049;-81
2023/07/16 09:27:43;;;;;;;4.50;1.85;;;;;;;28.44;32.96;100565.81;5033392;28;20037;-81
2023/07/16 09:30:16;;;;;;;3.95;1.90;;;;;;;29.11;31.40;100564.47;5030677;28;20045;-82
2023/07/16 09:32:43;;;;;;;;;;;;;;;29.01;31.90;100567.13;5028992;28;20055;-81
2023/07/16 09:35:15;;;;;;;2.95;1.60;;;;;;;29.54;31.62;100573.25;5031289;28;19980;-79
2023/07/16 09:37:42;;;;;;;5.55;1.55;;;;;;;29.15;30.96;100570.41;5029876;28;20061;-79
2023/07/16 09:40:13;;;;;;;2.45;1.48;;;;;;;30.12;30.50;100572.44;5032223;28;20033;-82
2023/07/16 09:42:42;;;;;;;3.45;1.95;;;;;;;30.36;29.45;100580.13;5043220;28;20041;-80
2023/07/16 09:45:23;;;;;;;4.75;1.88;;;;;;;29.04;31.11;100568.69;5024439;28;20038;-82
2023/07/16 09:47:49;;;;;;;7.00;2.10;;;;;;;27.88;32.81;100576.69;5021802;28;20056;-82
2023/07/16 09:50:16;;;;;;;3.72;1.70;;;;;;;28.10;32.51;100584.84;5021990;28;20045;-80
2023/07/16 09:52:43;;;;;;;1.58;1.40;;;;;;;26.93;33.65;100579.88;5019601;28;20050;-82
2023/07/16 09:55:10;;;;;;;3.33;1.73;;;;;;;28.11;32.53;100576.63;5004643;28;20396;-81
2023/07/16 09:57:41;;;;;;;2.63;1.38;;;;;;;27.92;32.17;100582.66;5026564;28;20598;-81
2023/07/16 10:00:12;;;;;;;2.15;1.65;;;;;;;27.10;33.73;100572.31;5030381;28;20041;-79
2023/07/16 10:02:49;;;;;;;2.00;1.42;;;;;;;26.76;35.08;100589.25;5027518;28;20038;-79
2023/07/16 10:05:17;;;;;;;6.50;1.98;;;;;;;27.71;33.90;100588.00;5026828;28;20053;-82
2023/07/16 10:07:52;;;;;;;6.07;1.75;;;;;;;28.83;32.23;100580.34;5044957;28;20037;-79
2023/07/16 10:10:19;;;;;;;2.67;1.98;;;;;;;29.88;30.67;100586.38;5044546;28;20057;-81
2023/07/16 10:12:57;;;;;;;5.05;1.85;;;;;;;29.97;30.38;100585.53;5024792;28;20044;-79
2023/07/16 10:15:29;;;;;;;2.47;1.58;;;;;;;30.32;30.10;100575.97;5024012;28;20041;-80
2023/07/16 10:17:57;;;;;;;2.60;1.58;;;;;;;31.23;28.93;100577.31;5030901;28;20083;-80
2023/07/16 10:20:42;;;;;;;2.92;1.60;;;;;;;31.86;27.12;100570.22;5021724;28;20119;-80
2023/07/16 10:23:19;;;;;;;3.38;1.40;;;;;;;32.62;25.93;100571.50;5029251;28;20047;-84
2023/07/16 10:26:00;;;;;;;4.05;1.70;;;;;;;32.95;25.68;100569.00;5028176;28;20064;-80
2023/07/16 10:28:27;;;;;;;1.40;1.30;;;;;;;32.84;26.18;100582.81;5028717;28;20042;-82
2023/07/16 10:30:54;;;;;;;2.40;1.88;;;;;;;31.99;26.64;100573.41;5029568;28;20492;-79
2023/07/16 10:33:20;;;;;;;3.90;1.70;;;;;;;30.62;28.15;100579.50;5024701;28;20494;-80
2023/07/16 10:35:47;;;;;;;3.00;1.70;;;;;;;31.16;28.07;100592.44;5025089;28;20037;-82
2023/07/16 10:38:13;;;;;;;1.98;1.45;;;;;;;31.38;27.23;100580.38;5026628;28;20053;-81
2023/07/16 10:40:45;;;;;;;1.55;1.45;;;;;;;31.87;25.79;100579.19;5026479;28;20060;-81
2023/07/16 10:43:15;;;;;;;3.47;1.47;;;;;;;31.96;25.59;100581.81;5030478;28;20037;-80
2023/07/16 10:45:42;;;;;;;3.83;1.88;;;;;;;31.18;26.32;100587.72;5026529;28;20128;-80
2023/07/16 10:48:08;;;;;;;2.22;2.00;;;;;;;30.60;27.47;100594.16;5021802;28;20111;-82
2023/07/16 10:50:36;;;;;;;3.17;1.77;;;;;;;31.30;27.19;100589.22;5007370;28;20041;-84
2023/07/16 10:53:03;;;;;;;2.17;1.58;;;;;;;32.77;25.42;100598.06;5006462;28;20192;-82
2023/07/16 10:55:37;;;;;;;2.17;1.80;;;;;;;33.93;24.72;100619.19;5021494;28;20119;-81
2023/07/16 10:58:08;;;;;;;2.17;1.50;;;;;;;33.67;23.86;100594.03;5013477;28;20057;-79
2023/07/16 11:00:40;;;;;;;1.85;1.60;;;;;;;33.26;24.32;100617.31;5032031;28;20040;-91
2023/07/16 11:03:14;;;;;;;3.43;1.67;;;;;;;32.89;24.64;100606.75;5040574;28;20065;-89
2023/07/16 11:05:42;;;;;;;1.80;1.67;;;;;;;33.15;24.67;100602.16;5027776;28;20801;-88
2023/07/16 11:08:11;;;;;;;1.75;1.63;;;;;;;32.81;23.88;100600.28;5021533;28;20424;-89
2023/07/16 11:10:40;;;;;;;5.38;2.10;;;;;;;33.28;23.66;100596.31;5024806;28;20042;-89
2023/07/16 11:13:08;;;;;;;3.67;1.92;;;;;;;32.94;24.08;100602.53;5037871;28;20124;-88
2023/07/16 11:15:36;;;;;;;3.78;1.80;;;;;;;33.31;23.39;100590.53;5032929;28;20039;-89
2023/07/16 11:18:05;;;;;;;2.50;1.75;;;;;;;33.47;23.18;100597.88;5019450;28;20041;-87
2023/07/16 11:20:33;;;;;;;1.67;1.65;;;;;;;34.16;22.54;100598.66;5020518;28;20099;-90
2023/07/16 11:23:01;;;;;;;5.45;2.22;;;;;;;32.26;24.77;100598.69;5033600;28;20041;-88
2023/07/16 11:25:30;;;;;;;2.17;2.08;;;;;;;31.40;26.03;100605.38;5020568;28;20045;-90
2023/07/16 11:27:57;;;;;;;2.75;2.15;;;;;;;32.38;24.73;100598.44;5030144;28;20071;-88